Terminal Aerodrome Forecast
Issued by NWS

Home | Current Version | Previous Version | Text Only | Print | Product List | Glossary Off
Versions: 1 2 3 4 5 6 7 8 9 10 11 12 13 14 15 16 17 18 19 20 21 22

000
FTUS43 KMPX 220700 AAA
TAFRNH
TAF AMD
KRNH 220711Z 2207/2306 00000KT 2SM BR OVC003
      TEMPO 2207/2209 1/2SM FG VV002
     FM221300 34004KT 4SM BR OVC005
     FM221500 35007KT P6SM OVC008
     FM221700 35007KT P6SM BKN030=

USA.gov is the U.S. government's official web portal to all federal, state and local government web resources and services.